Buenos Aires, Argentina

4:36 PM -03 en Mayo 27, 2017 (GMT -0300)
Escuela OTTO KRAUSE - Monserrat | | Change Station

Alt 82 ft 34.62 °S, 58.37 °W | Updated 6 minutes ago

Muy nublado
Muy nublado
55.9 ° F
Sensación térmica 55.9 ° F
N
9.0
Viento Variable Viento desde Este
Gusts 14.0 mph

Hoy
Alta -- | Baja -- ° F
--% Posibilidad de precipitaciones
Ayer
Alta -- | Baja -- ° F
Precip. -- pul
Presión 30.36 pul
Visibilidad 6.2 Millas
Nubes Muy nublado 2500 ft
Nubes dispersas 20000 ft
Punto de rocío 45 ° F
Humedad 67%
Precipitaciones 0.02 pul
Espesor de la nieve No disponible.
7:48 AM 5:52 PM
Creciente, 6% visible
METAR SABE 271900Z 12011KT 090V160 9999 BKN025 SCT200 14/07 Q1028
Presión 30.36 pul
Visibilidad 6.2 Millas
Nubes Muy nublado 2500 ft
Nubes dispersas 20000 ft
Punto de rocío 45 ° F
Humedad 67%
Precipitaciones 0.02 pul
Espesor de la nieve No disponible.
7:48 AM 5:52 PM
Creciente, 6% visible
METAR SABE 271900Z 12011KT 090V160 9999 BKN025 SCT200 14/07 Q1028

Get Severe Weather Alerts

Thanks for signing up!

Be on the lookout for a verification email in your inbox.

You'll start receiving the daily forecast at 6 AM.

×

10-Day Weather Forecast

Almanac

Astronomía

May. 27, 2017 Salida Puesta
Hora real
Crepúsculo civil
Crepúsculo náutico
Crepúsculo astronómico
Luna
Horas de luz
Horas de luz
Tomorrow will be .
, % of the Moon is Illuminated

Extremos de hoy

Máximos del país Bajas del país

Community

WunderPhotos

Category 6

Welcome to Category 6. This is the collective home for Weather Underground's featured writeups by Dr. Jeff Masters (right), Bob Henson (left), Chris Burt, and other regular contributors.

Nearby

Calidad del aire

  Calidad del aire Índice AQ Contaminante
Not available.

Grosos de nieve

Estación Profundido Altura

Actividad de terremotos

Ciudad Distance Mag. Tiempo y dato
Magnitud mínima muestra es 2,5.

Temperaturas de aguas costeras

Lugar Temperatura

Stations

Estaciones meteorológicas cercanas

Ubicación de la estación Temp. Vientos helados Punto de rocío Humedad Viento Precip. Alt Actualizado Tipo